sensor_id;sensor_type;location;lat;lon;timestamp;temperature;humidity
4556;DHT22;2290;48.674;9.018;2023-06-14T00:00:02;15.40;80.70
4556;DHT22;2290;48.674;9.018;2023-06-14T00:02:29;15.20;81.10
4556;DHT22;2290;48.674;9.018;2023-06-14T00:04:55;15.20;81.10
4556;DHT22;2290;48.674;9.018;2023-06-14T00:07:35;15.10;81.40
4556;DHT22;2290;48.674;9.018;2023-06-14T00:10:02;15.10;81.20
4556;DHT22;2290;48.674;9.018;2023-06-14T00:12:28;15.10;81.90
4556;DHT22;2290;48.674;9.018;2023-06-14T00:14:54;15.10;82.40
4556;DHT22;2290;48.674;9.018;2023-06-14T00:17:19;15.00;82.80
4556;DHT22;2290;48.674;9.018;2023-06-14T00:19:46;15.00;82.80
4556;DHT22;2290;48.674;9.018;2023-06-14T00:22:11;15.00;83.10
4556;DHT22;2290;48.674;9.018;2023-06-14T00:24:38;14.70;84.20
4556;DHT22;2290;48.674;9.018;2023-06-14T00:27:04;14.50;85.30
4556;DHT22;2290;48.674;9.018;2023-06-14T00:29:30;14.60;84.70
4556;DHT22;2290;48.674;9.018;2023-06-14T00:31:56;14.70;84.70
4556;DHT22;2290;48.674;9.018;2023-06-14T00:34:22;14.60;85.20
4556;DHT22;2290;48.674;9.018;2023-06-14T00:36:47;14.80;84.70
4556;DHT22;2290;48.674;9.018;2023-06-14T00:39:13;14.80;84.60
4556;DHT22;2290;48.674;9.018;2023-06-14T00:41:40;14.80;85.30
4556;DHT22;2290;48.674;9.018;2023-06-14T00:44:06;14.70;85.40
4556;DHT22;2290;48.674;9.018;2023-06-14T00:46:31;14.70;85.60
4556;DHT22;2290;48.674;9.018;2023-06-14T00:48:58;14.70;85.90
4556;DHT22;2290;48.674;9.018;2023-06-14T00:51:24;14.70;85.90
4556;DHT22;2290;48.674;9.018;2023-06-14T00:53:51;14.70;85.80
4556;DHT22;2290;48.674;9.018;2023-06-14T00:56:16;14.60;86.10
4556;DHT22;2290;48.674;9.018;2023-06-14T00:58:46;14.50;86.30
4556;DHT22;2290;48.674;9.018;2023-06-14T01:01:11;14.50;85.90
4556;DHT22;2290;48.674;9.018;2023-06-14T01:03:37;14.50;86.30
4556;DHT22;2290;48.674;9.018;2023-06-14T01:09:07;14.40;86.70
4556;DHT22;2290;48.674;9.018;2023-06-14T01:11:50;14.50;86.70
4556;DHT22;2290;48.674;9.018;2023-06-14T01:14:17;14.50;86.80
4556;DHT22;2290;48.674;9.018;2023-06-14T01:16:44;14.40;87.40
4556;DHT22;2290;48.674;9.018;2023-06-14T01:19:12;14.50;87.20
4556;DHT22;2290;48.674;9.018;2023-06-14T01:21:39;14.40;87.30
4556;DHT22;2290;48.674;9.018;2023-06-14T01:24:08;14.30;87.60
4556;DHT22;2290;48.674;9.018;2023-06-14T01:26:34;14.20;88.10
4556;DHT22;2290;48.674;9.018;2023-06-14T01:29:01;14.10;88.20
4556;DHT22;2290;48.674;9.018;2023-06-14T01:31:27;14.10;88.20
4556;DHT22;2290;48.674;9.018;2023-06-14T01:33:55;14.00;88.80
4556;DHT22;2290;48.674;9.018;2023-06-14T01:36:29;13.90;89.00
4556;DHT22;2290;48.674;9.018;2023-06-14T01:38:56;13.90;89.30
4556;DHT22;2290;48.674;9.018;2023-06-14T01:41:23;13.70;90.00
4556;DHT22;2290;48.674;9.018;2023-06-14T01:43:50;13.50;90.30
4556;DHT22;2290;48.674;9.018;2023-06-14T01:46:17;13.70;90.30
4556;DHT22;2290;48.674;9.018;2023-06-14T01:48:43;13.70;90.40
4556;DHT22;2290;48.674;9.018;2023-06-14T01:51:09;13.60;90.40
4556;DHT22;2290;48.674;9.018;2023-06-14T01:53:34;13.70;90.30
4556;DHT22;2290;48.674;9.018;2023-06-14T01:56:03;13.60;90.40
4556;DHT22;2290;48.674;9.018;2023-06-14T01:58:29;13.70;90.30
4556;DHT22;2290;48.674;9.018;2023-06-14T02:00:54;13.60;90.50
4556;DHT22;2290;48.674;9.018;2023-06-14T02:03:23;13.60;90.60
4556;DHT22;2290;48.674;9.018;2023-06-14T02:05:49;13.50;90.60
4556;DHT22;2290;48.674;9.018;2023-06-14T02:08:17;13.40;90.70
4556;DHT22;2290;48.674;9.018;2023-06-14T02:10:44;13.50;90.70
4556;DHT22;2290;48.674;9.018;2023-06-14T02:13:09;13.50;91.20
4556;DHT22;2290;48.674;9.018;2023-06-14T02:15:35;13.60;90.70
4556;DHT22;2290;48.674;9.018;2023-06-14T02:18:04;13.60;90.50
4556;DHT22;2290;48.674;9.018;2023-06-14T02:20:30;13.60;90.50
4556;DHT22;2290;48.674;9.018;2023-06-14T02:22:56;13.70;90.60
4556;DHT22;2290;48.674;9.018;2023-06-14T02:25:22;13.60;90.60
4556;DHT22;2290;48.674;9.018;2023-06-14T02:27:47;13.60;90.70
4556;DHT22;2290;48.674;9.018;2023-06-14T02:30:13;13.50;90.80
4556;DHT22;2290;48.674;9.018;2023-06-14T02:32:43;13.50;90.80
4556;DHT22;2290;48.674;9.018;2023-06-14T02:35:09;13.40;90.70
4556;DHT22;2290;48.674;9.018;2023-06-14T02:37:36;13.50;90.80
4556;DHT22;2290;48.674;9.018;2023-06-14T02:40:03;13.40;91.00
4556;DHT22;2290;48.674;9.018;2023-06-14T02:42:29;13.40;91.10
4556;DHT22;2290;48.674;9.018;2023-06-14T02:44:55;13.30;91.40
4556;DHT22;2290;48.674;9.018;2023-06-14T02:47:24;13.10;91.70
4556;DHT22;2290;48.674;9.018;2023-06-14T02:49:50;12.80;92.10
4556;DHT22;2290;48.674;9.018;2023-06-14T02:52:15;12.90;92.30
4556;DHT22;2290;48.674;9.018;2023-06-14T02:54:41;12.80;92.50
4556;DHT22;2290;48.674;9.018;2023-06-14T02:57:08;12.80;92.60
4556;DHT22;2290;48.674;9.018;2023-06-14T02:59:34;12.70;93.00
4556;DHT22;2290;48.674;9.018;2023-06-14T03:02:01;12.50;93.20
4556;DHT22;2290;48.674;9.018;2023-06-14T03:04:28;12.50;93.70
4556;DHT22;2290;48.674;9.018;2023-06-14T03:06:54;12.60;93.60
4556;DHT22;2290;48.674;9.018;2023-06-14T03:09:21;12.60;93.60
4556;DHT22;2290;48.674;9.018;2023-06-14T03:11:47;12.70;93.50
4556;DHT22;2290;48.674;9.018;2023-06-14T03:14:13;12.80;93.40
4556;DHT22;2290;48.674;9.018;2023-06-14T03:16:39;12.80;93.40
4556;DHT22;2290;48.674;9.018;2023-06-14T03:19:06;12.80;93.50
4556;DHT22;2290;48.674;9.018;2023-06-14T03:21:33;12.70;93.70
4556;DHT22;2290;48.674;9.018;2023-06-14T03:24:00;12.60;93.80
4556;DHT22;2290;48.674;9.018;2023-06-14T03:26:25;12.60;93.90
4556;DHT22;2290;48.674;9.018;2023-06-14T03:28:51;12.80;93.90
4556;DHT22;2290;48.674;9.018;2023-06-14T03:31:17;12.80;93.70
4556;DHT22;2290;48.674;9.018;2023-06-14T03:33:42;12.80;93.70
4556;DHT22;2290;48.674;9.018;2023-06-14T03:36:08;12.80;93.80
4556;DHT22;2290;48.674;9.018;2023-06-14T03:38:34;12.90;93.80
4556;DHT22;2290;48.674;9.018;2023-06-14T03:41:00;12.90;93.70
4556;DHT22;2290;48.674;9.018;2023-06-14T03:43:26;12.90;93.70
4556;DHT22;2290;48.674;9.018;2023-06-14T03:45:52;12.80;93.90
4556;DHT22;2290;48.674;9.018;2023-06-14T03:48:18;12.80;93.90
4556;DHT22;2290;48.674;9.018;2023-06-14T03:50:43;12.90;94.10
4556;DHT22;2290;48.674;9.018;2023-06-14T03:53:10;13.20;93.70
4556;DHT22;2290;48.674;9.018;2023-06-14T03:55:35;13.40;93.50
4556;DHT22;2290;48.674;9.018;2023-06-14T03:58:03;13.30;93.40
4556;DHT22;2290;48.674;9.018;2023-06-14T04:00:29;13.40;93.20
4556;DHT22;2290;48.674;9.018;2023-06-14T04:02:54;13.20;93.30
4556;DHT22;2290;48.674;9.018;2023-06-14T04:05:20;13.20;93.20
4556;DHT22;2290;48.674;9.018;2023-06-14T04:07:46;13.20;93.40
4556;DHT22;2290;48.674;9.018;2023-06-14T04:10:15;13.10;93.80
4556;DHT22;2290;48.674;9.018;2023-06-14T04:12:41;12.80;94.30
4556;DHT22;2290;48.674;9.018;2023-06-14T04:15:07;12.70;94.80
4556;DHT22;2290;48.674;9.018;2023-06-14T04:17:34;12.90;94.80
4556;DHT22;2290;48.674;9.018;2023-06-14T04:20:00;13.00;94.70
4556;DHT22;2290;48.674;9.018;2023-06-14T04:22:26;13.10;94.60
4556;DHT22;2290;48.674;9.018;2023-06-14T04:24:55;13.20;94.60
4556;DHT22;2290;48.674;9.018;2023-06-14T04:27:25;13.20;94.60
4556;DHT22;2290;48.674;9.018;2023-06-14T04:29:52;13.40;94.60
4556;DHT22;2290;48.674;9.018;2023-06-14T04:32:25;13.60;94.60
4556;DHT22;2290;48.674;9.018;2023-06-14T04:34:53;13.80;94.30
4556;DHT22;2290;48.674;9.018;2023-06-14T04:37:20;13.70;94.70
4556;DHT22;2290;48.674;9.018;2023-06-14T04:39:47;13.70;94.80
4556;DHT22;2290;48.674;9.018;2023-06-14T04:42:12;13.70;94.90
4556;DHT22;2290;48.674;9.018;2023-06-14T04:44:41;13.80;95.40
4556;DHT22;2290;48.674;9.018;2023-06-14T04:47:06;13.80;95.10
4556;DHT22;2290;48.674;9.018;2023-06-14T04:49:32;13.90;95.00
4556;DHT22;2290;48.674;9.018;2023-06-14T04:51:59;14.00;95.10
4556;DHT22;2290;48.674;9.018;2023-06-14T04:54:27;14.00;94.80
4556;DHT22;2290;48.674;9.018;2023-06-14T04:56:53;14.10;95.00
4556;DHT22;2290;48.674;9.018;2023-06-14T04:59:21;14.10;95.10
4556;DHT22;2290;48.674;9.018;2023-06-14T05:01:49;14.20;95.00
4556;DHT22;2290;48.674;9.018;2023-06-14T05:04:18;14.30;94.70
4556;DHT22;2290;48.674;9.018;2023-06-14T05:06:44;14.40;94.30
4556;DHT22;2290;48.674;9.018;2023-06-14T05:09:14;14.60;94.40
4556;DHT22;2290;48.674;9.018;2023-06-14T05:11:40;14.70;94.20
4556;DHT22;2290;48.674;9.018;2023-06-14T05:14:10;14.80;93.90
4556;DHT22;2290;48.674;9.018;2023-06-14T05:16:35;15.10;93.20
4556;DHT22;2290;48.674;9.018;2023-06-14T05:19:01;15.20;92.90
4556;DHT22;2290;48.674;9.018;2023-06-14T05:21:27;15.40;92.70
4556;DHT22;2290;48.674;9.018;2023-06-14T05:23:53;15.50;92.50
4556;DHT22;2290;48.674;9.018;2023-06-14T05:26:19;15.50;92.30
4556;DHT22;2290;48.674;9.018;2023-06-14T05:28:45;15.60;92.00
4556;DHT22;2290;48.674;9.018;2023-06-14T05:31:10;15.60;92.00
4556;DHT22;2290;48.674;9.018;2023-06-14T05:33:37;15.60;91.80
4556;DHT22;2290;48.674;9.018;2023-06-14T05:36:03;15.80;91.60
4556;DHT22;2290;48.674;9.018;2023-06-14T05:38:28;15.90;91.70
4556;DHT22;2290;48.674;9.018;2023-06-14T05:40:54;16.00;91.80
4556;DHT22;2290;48.674;9.018;2023-06-14T05:43:19;16.10;91.80
4556;DHT22;2290;48.674;9.018;2023-06-14T05:45:45;16.30;91.60
4556;DHT22;2290;48.674;9.018;2023-06-14T05:48:11;16.50;91.20
4556;DHT22;2290;48.674;9.018;2023-06-14T05:50:38;16.60;91.20
4556;DHT22;2290;48.674;9.018;2023-06-14T05:53:03;16.70;91.00
4556;DHT22;2290;48.674;9.018;2023-06-14T05:55:29;16.80;91.00
4556;DHT22;2290;48.674;9.018;2023-06-14T05:57:55;16.80;90.90
4556;DHT22;2290;48.674;9.018;2023-06-14T06:00:20;16.90;90.80
4556;DHT22;2290;48.674;9.018;2023-06-14T06:02:46;17.00;90.70
4556;DHT22;2290;48.674;9.018;2023-06-14T06:05:13;17.10;90.70
4556;DHT22;2290;48.674;9.018;2023-06-14T06:07:40;17.30;90.60
4556;DHT22;2290;48.674;9.018;2023-06-14T06:10:06;17.40;90.50
4556;DHT22;2290;48.674;9.018;2023-06-14T06:12:32;17.50;90.10
4556;DHT22;2290;48.674;9.018;2023-06-14T06:14:58;17.60;89.30
4556;DHT22;2290;48.674;9.018;2023-06-14T06:17:25;17.60;88.30
4556;DHT22;2290;48.674;9.018;2023-06-14T06:19:50;17.70;88.20
4556;DHT22;2290;48.674;9.018;2023-06-14T06:22:16;17.80;87.90
4556;DHT22;2290;48.674;9.018;2023-06-14T06:24:42;18.00;87.00
4556;DHT22;2290;48.674;9.018;2023-06-14T06:27:08;18.10;86.90
4556;DHT22;2290;48.674;9.018;2023-06-14T06:29:36;18.20;85.40
4556;DHT22;2290;48.674;9.018;2023-06-14T06:32:03;18.30;85.20
4556;DHT22;2290;48.674;9.018;2023-06-14T06:34:29;18.50;84.20
4556;DHT22;2290;48.674;9.018;2023-06-14T06:36:54;18.60;83.20
4556;DHT22;2290;48.674;9.018;2023-06-14T06:39:20;18.70;83.20
4556;DHT22;2290;48.674;9.018;2023-06-14T06:41:46;18.80;82.10
4556;DHT22;2290;48.674;9.018;2023-06-14T06:44:11;18.80;81.50
4556;DHT22;2290;48.674;9.018;2023-06-14T06:46:38;19.00;80.50
4556;DHT22;2290;48.674;9.018;2023-06-14T06:49:08;19.00;79.90
4556;DHT22;2290;48.674;9.018;2023-06-14T06:51:40;19.10;79.70
4556;DHT22;2290;48.674;9.018;2023-06-14T06:54:08;19.20;78.80
4556;DHT22;2290;48.674;9.018;2023-06-14T06:56:34;19.30;78.70
4556;DHT22;2290;48.674;9.018;2023-06-14T06:59:00;19.40;79.00
4556;DHT22;2290;48.674;9.018;2023-06-14T07:01:25;19.50;79.70
4556;DHT22;2290;48.674;9.018;2023-06-14T07:03:51;19.50;79.80
4556;DHT22;2290;48.674;9.018;2023-06-14T07:06:17;19.60;80.30
4556;DHT22;2290;48.674;9.018;2023-06-14T07:08:44;19.60;80.20
4556;DHT22;2290;48.674;9.018;2023-06-14T07:11:13;19.70;80.20
4556;DHT22;2290;48.674;9.018;2023-06-14T07:13:40;19.80;78.80
4556;DHT22;2290;48.674;9.018;2023-06-14T07:16:06;19.80;79.30
4556;DHT22;2290;48.674;9.018;2023-06-14T07:18:31;19.90;79.00
4556;DHT22;2290;48.674;9.018;2023-06-14T07:20:58;19.90;79.00
4556;DHT22;2290;48.674;9.018;2023-06-14T07:23:24;20.10;78.50
4556;DHT22;2290;48.674;9.018;2023-06-14T07:25:50;20.10;78.50
4556;DHT22;2290;48.674;9.018;2023-06-14T07:28:16;20.10;78.60
4556;DHT22;2290;48.674;9.018;2023-06-14T07:30:43;20.20;78.90
4556;DHT22;2290;48.674;9.018;2023-06-14T07:33:10;20.40;78.50
4556;DHT22;2290;48.674;9.018;2023-06-14T07:35:37;20.40;77.70
4556;DHT22;2290;48.674;9.018;2023-06-14T07:38:03;20.50;77.70
4556;DHT22;2290;48.674;9.018;2023-06-14T07:40:28;20.50;77.80
4556;DHT22;2290;48.674;9.018;2023-06-14T07:42:54;20.70;77.80
4556;DHT22;2290;48.674;9.018;2023-06-14T07:45:21;20.70;75.40
4556;DHT22;2290;48.674;9.018;2023-06-14T07:47:46;20.70;75.40
4556;DHT22;2290;48.674;9.018;2023-06-14T07:50:12;20.70;74.80
4556;DHT22;2290;48.674;9.018;2023-06-14T07:52:39;20.70;74.10
4556;DHT22;2290;48.674;9.018;2023-06-14T07:55:05;20.70;74.40
4556;DHT22;2290;48.674;9.018;2023-06-14T07:57:31;20.80;74.00
4556;DHT22;2290;48.674;9.018;2023-06-14T07:59:56;20.90;74.30
4556;DHT22;2290;48.674;9.018;2023-06-14T08:02:23;21.00;73.60
4556;DHT22;2290;48.674;9.018;2023-06-14T08:04:50;21.00;73.20
4556;DHT22;2290;48.674;9.018;2023-06-14T08:07:16;21.10;74.20
4556;DHT22;2290;48.674;9.018;2023-06-14T08:09:41;21.20;75.10
4556;DHT22;2290;48.674;9.018;2023-06-14T08:12:07;21.10;75.30
4556;DHT22;2290;48.674;9.018;2023-06-14T08:14:35;21.30;75.60
4556;DHT22;2290;48.674;9.018;2023-06-14T08:17:00;21.30;75.50
4556;DHT22;2290;48.674;9.018;2023-06-14T08:19:26;21.40;76.20
4556;DHT22;2290;48.674;9.018;2023-06-14T08:21:52;21.50;76.80
4556;DHT22;2290;48.674;9.018;2023-06-14T08:24:22;21.60;77.90
4556;DHT22;2290;48.674;9.018;2023-06-14T08:26:53;21.60;78.00
4556;DHT22;2290;48.674;9.018;2023-06-14T08:29:19;21.50;77.80
4556;DHT22;2290;48.674;9.018;2023-06-14T08:31:46;21.60;77.10
4556;DHT22;2290;48.674;9.018;2023-06-14T08:34:12;21.70;77.00
4556;DHT22;2290;48.674;9.018;2023-06-14T08:36:38;21.70;77.00
4556;DHT22;2290;48.674;9.018;2023-06-14T08:39:04;21.80;77.20
4556;DHT22;2290;48.674;9.018;2023-06-14T08:41:30;21.80;75.80
4556;DHT22;2290;48.674;9.018;2023-06-14T08:43:56;21.90;76.40
4556;DHT22;2290;48.674;9.018;2023-06-14T08:46:25;22.00;76.80
4556;DHT22;2290;48.674;9.018;2023-06-14T08:48:53;22.00;77.50
4556;DHT22;2290;48.674;9.018;2023-06-14T08:51:20;22.10;77.30
4556;DHT22;2290;48.674;9.018;2023-06-14T08:53:53;22.30;76.10
4556;DHT22;2290;48.674;9.018;2023-06-14T08:56:25;22.30;75.50
4556;DHT22;2290;48.674;9.018;2023-06-14T08:58:54;22.30;73.80
4556;DHT22;2290;48.674;9.018;2023-06-14T09:01:20;22.20;73.30
4556;DHT22;2290;48.674;9.018;2023-06-14T09:03:47;22.30;73.90
4556;DHT22;2290;48.674;9.018;2023-06-14T09:06:13;22.20;73.50
4556;DHT22;2290;48.674;9.018;2023-06-14T09:08:44;22.20;72.80
4556;DHT22;2290;48.674;9.018;2023-06-14T09:11:14;22.10;73.90
4556;DHT22;2290;48.674;9.018;2023-06-14T09:13:41;22.30;74.00
4556;DHT22;2290;48.674;9.018;2023-06-14T09:16:07;22.40;74.10
4556;DHT22;2290;48.674;9.018;2023-06-14T09:18:40;22.60;73.90
4556;DHT22;2290;48.674;9.018;2023-06-14T09:21:06;22.80;73.10
4556;DHT22;2290;48.674;9.018;2023-06-14T09:23:41;22.80;73.20
4556;DHT22;2290;48.674;9.018;2023-06-14T09:26:22;22.90;72.60
4556;DHT22;2290;48.674;9.018;2023-06-14T09:28:54;23.00;72.90
4556;DHT22;2290;48.674;9.018;2023-06-14T09:31:21;23.10;72.80
4556;DHT22;2290;48.674;9.018;2023-06-14T09:33:51;23.20;73.80
4556;DHT22;2290;48.674;9.018;2023-06-14T09:36:24;23.30;73.50
4556;DHT22;2290;48.674;9.018;2023-06-14T09:39:01;23.20;71.60
4556;DHT22;2290;48.674;9.018;2023-06-14T09:41:36;23.20;71.70
4556;DHT22;2290;48.674;9.018;2023-06-14T09:44:03;23.30;71.50
4556;DHT22;2290;48.674;9.018;2023-06-14T09:46:29;23.30;71.70
4556;DHT22;2290;48.674;9.018;2023-06-14T09:48:56;23.50;72.80
4556;DHT22;2290;48.674;9.018;2023-06-14T09:51:23;23.60;72.10
4556;DHT22;2290;48.674;9.018;2023-06-14T09:53:49;23.60;72.60
4556;DHT22;2290;48.674;9.018;2023-06-14T09:56:37;23.70;72.90
4556;DHT22;2290;48.674;9.018;2023-06-14T09:59:05;23.90;72.50
4556;DHT22;2290;48.674;9.018;2023-06-14T10:01:34;23.90;71.10
4556;DHT22;2290;48.674;9.018;2023-06-14T10:04:06;23.80;69.40
4556;DHT22;2290;48.674;9.018;2023-06-14T10:06:38;23.80;66.20
4556;DHT22;2290;48.674;9.018;2023-06-14T10:09:09;23.90;67.20
4556;DHT22;2290;48.674;9.018;2023-06-14T10:11:37;24.00;66.30
4556;DHT22;2290;48.674;9.018;2023-06-14T10:14:09;24.20;65.70
4556;DHT22;2290;48.674;9.018;2023-06-14T10:16:42;24.30;66.60
4556;DHT22;2290;48.674;9.018;2023-06-14T10:19:13;24.40;66.10
4556;DHT22;2290;48.674;9.018;2023-06-14T10:22:00;24.50;65.80
4556;DHT22;2290;48.674;9.018;2023-06-14T10:26:58;24.90;64.90
4556;DHT22;2290;48.674;9.018;2023-06-14T10:29:25;25.00;65.60
4556;DHT22;2290;48.674;9.018;2023-06-14T10:31:56;25.00;63.10
4556;DHT22;2290;48.674;9.018;2023-06-14T10:37:11;25.00;63.80
4556;DHT22;2290;48.674;9.018;2023-06-14T10:39:43;25.10;65.70
4556;DHT22;2290;48.674;9.018;2023-06-14T10:42:13;25.20;66.90
4556;DHT22;2290;48.674;9.018;2023-06-14T10:44:41;24.90;66.00
4556;DHT22;2290;48.674;9.018;2023-06-14T10:47:20;24.70;65.40
4556;DHT22;2290;48.674;9.018;2023-06-14T10:49:50;24.30;66.20
4556;DHT22;2290;48.674;9.018;2023-06-14T10:52:22;24.10;66.10
4556;DHT22;2290;48.674;9.018;2023-06-14T10:55:06;23.80;66.50
4556;DHT22;2290;48.674;9.018;2023-06-14T10:58:02;23.70;66.40
4556;DHT22;2290;48.674;9.018;2023-06-14T11:00:29;23.90;67.30
4556;DHT22;2290;48.674;9.018;2023-06-14T11:05:51;24.00;67.60
4556;DHT22;2290;48.674;9.018;2023-06-14T11:11:13;24.50;66.10
4556;DHT22;2290;48.674;9.018;2023-06-14T11:13:44;24.80;66.90
4556;DHT22;2290;48.674;9.018;2023-06-14T11:16:14;25.00;65.80
4556;DHT22;2290;48.674;9.018;2023-06-14T11:18:41;25.30;65.00
4556;DHT22;2290;48.674;9.018;2023-06-14T11:21:08;25.40;65.20
4556;DHT22;2290;48.674;9.018;2023-06-14T11:23:36;25.30;63.40
4556;DHT22;2290;48.674;9.018;2023-06-14T11:26:02;25.50;64.70
4556;DHT22;2290;48.674;9.018;2023-06-14T11:28:40;25.70;64.80
4556;DHT22;2290;48.674;9.018;2023-06-14T11:31:06;26.00;64.00
4556;DHT22;2290;48.674;9.018;2023-06-14T11:33:33;26.00;59.30
4556;DHT22;2290;48.674;9.018;2023-06-14T11:36:05;25.80;60.50
4556;DHT22;2290;48.674;9.018;2023-06-14T11:38:37;26.00;61.80
4556;DHT22;2290;48.674;9.018;2023-06-14T11:41:03;26.30;63.40
4556;DHT22;2290;48.674;9.018;2023-06-14T11:43:29;26.50;62.90
4556;DHT22;2290;48.674;9.018;2023-06-14T11:45:58;26.60;62.20
4556;DHT22;2290;48.674;9.018;2023-06-14T11:48:36;26.50;61.60
4556;DHT22;2290;48.674;9.018;2023-06-14T11:51:01;26.10;61.70
4556;DHT22;2290;48.674;9.018;2023-06-14T11:53:27;26.00;62.30
4556;DHT22;2290;48.674;9.018;2023-06-14T11:55:53;25.90;63.30
4556;DHT22;2290;48.674;9.018;2023-06-14T11:58:20;25.80;63.90
4556;DHT22;2290;48.674;9.018;2023-06-14T12:00:50;25.60;64.30
4556;DHT22;2290;48.674;9.018;2023-06-14T12:03:15;25.40;65.30
4556;DHT22;2290;48.674;9.018;2023-06-14T12:05:41;25.30;65.50
4556;DHT22;2290;48.674;9.018;2023-06-14T12:08:07;25.40;66.00
4556;DHT22;2290;48.674;9.018;2023-06-14T12:10:40;25.30;65.00
4556;DHT22;2290;48.674;9.018;2023-06-14T12:13:09;25.10;65.80
4556;DHT22;2290;48.674;9.018;2023-06-14T12:15:34;24.90;65.40
4556;DHT22;2290;48.674;9.018;2023-06-14T12:18:01;25.00;66.20
4556;DHT22;2290;48.674;9.018;2023-06-14T12:20:31;25.40;65.90
4556;DHT22;2290;48.674;9.018;2023-06-14T12:23:03;25.90;65.10
4556;DHT22;2290;48.674;9.018;2023-06-14T12:25:48;26.30;63.40
4556;DHT22;2290;48.674;9.018;2023-06-14T12:28:20;26.50;62.30
4556;DHT22;2290;48.674;9.018;2023-06-14T12:30:46;26.80;62.90
4556;DHT22;2290;48.674;9.018;2023-06-14T12:33:12;26.90;63.20
4556;DHT22;2290;48.674;9.018;2023-06-14T12:35:37;27.10;61.20
4556;DHT22;2290;48.674;9.018;2023-06-14T12:38:03;27.30;62.00
4556;DHT22;2290;48.674;9.018;2023-06-14T12:40:30;27.20;61.40
4556;DHT22;2290;48.674;9.018;2023-06-14T12:42:56;27.50;61.00
4556;DHT22;2290;48.674;9.018;2023-06-14T12:45:22;27.60;60.50
4556;DHT22;2290;48.674;9.018;2023-06-14T12:47:49;27.70;60.80
4556;DHT22;2290;48.674;9.018;2023-06-14T12:50:15;27.60;60.70
4556;DHT22;2290;48.674;9.018;2023-06-14T12:52:40;27.30;60.10
4556;DHT22;2290;48.674;9.018;2023-06-14T12:55:06;27.00;60.50
4556;DHT22;2290;48.674;9.018;2023-06-14T12:57:32;27.10;60.70
4556;DHT22;2290;48.674;9.018;2023-06-14T13:00:00;27.30;59.70
4556;DHT22;2290;48.674;9.018;2023-06-14T13:02:25;27.70;60.60
4556;DHT22;2290;48.674;9.018;2023-06-14T13:04:51;28.00;59.90
4556;DHT22;2290;48.674;9.018;2023-06-14T13:07:19;28.10;59.30
4556;DHT22;2290;48.674;9.018;2023-06-14T13:09:44;28.10;58.60
4556;DHT22;2290;48.674;9.018;2023-06-14T13:12:10;28.20;58.70
4556;DHT22;2290;48.674;9.018;2023-06-14T13:14:39;28.20;58.90
4556;DHT22;2290;48.674;9.018;2023-06-14T13:17:08;28.30;58.00
4556;DHT22;2290;48.674;9.018;2023-06-14T13:19:36;28.20;57.50
4556;DHT22;2290;48.674;9.018;2023-06-14T13:22:03;28.20;57.60
4556;DHT22;2290;48.674;9.018;2023-06-14T13:24:29;28.20;57.70
4556;DHT22;2290;48.674;9.018;2023-06-14T13:26:55;28.30;58.10
4556;DHT22;2290;48.674;9.018;2023-06-14T13:29:21;28.30;58.40
4556;DHT22;2290;48.674;9.018;2023-06-14T13:31:48;28.40;58.10
4556;DHT22;2290;48.674;9.018;2023-06-14T13:34:13;28.30;58.20
4556;DHT22;2290;48.674;9.018;2023-06-14T13:36:39;28.40;57.60
4556;DHT22;2290;48.674;9.018;2023-06-14T13:39:04;28.50;57.50
4556;DHT22;2290;48.674;9.018;2023-06-14T13:41:31;28.40;57.40
4556;DHT22;2290;48.674;9.018;2023-06-14T13:43:59;28.50;57.00
4556;DHT22;2290;48.674;9.018;2023-06-14T13:46:25;28.50;57.20
4556;DHT22;2290;48.674;9.018;2023-06-14T13:48:51;28.50;57.20
4556;DHT22;2290;48.674;9.018;2023-06-14T13:51:17;28.30;56.90
4556;DHT22;2290;48.674;9.018;2023-06-14T13:53:49;28.10;56.70
4556;DHT22;2290;48.674;9.018;2023-06-14T13:56:15;27.80;57.10
4556;DHT22;2290;48.674;9.018;2023-06-14T13:58:42;27.60;57.60
4556;DHT22;2290;48.674;9.018;2023-06-14T14:01:09;27.60;57.20
4556;DHT22;2290;48.674;9.018;2023-06-14T14:03:36;27.70;57.30
4556;DHT22;2290;48.674;9.018;2023-06-14T14:06:03;27.70;58.00
4556;DHT22;2290;48.674;9.018;2023-06-14T14:08:29;28.00;58.00
4556;DHT22;2290;48.674;9.018;2023-06-14T14:10:55;28.10;57.70
4556;DHT22;2290;48.674;9.018;2023-06-14T14:13:22;28.30;57.70
4556;DHT22;2290;48.674;9.018;2023-06-14T14:15:47;28.10;58.00
4556;DHT22;2290;48.674;9.018;2023-06-14T14:18:14;27.90;57.50
4556;DHT22;2290;48.674;9.018;2023-06-14T14:20:42;27.70;57.80
4556;DHT22;2290;48.674;9.018;2023-06-14T14:23:07;27.80;58.20
4556;DHT22;2290;48.674;9.018;2023-06-14T14:25:33;27.80;57.30
4556;DHT22;2290;48.674;9.018;2023-06-14T14:27:58;27.50;58.10
4556;DHT22;2290;48.674;9.018;2023-06-14T14:30:24;27.40;58.50
4556;DHT22;2290;48.674;9.018;2023-06-14T14:32:50;27.30;58.10
4556;DHT22;2290;48.674;9.018;2023-06-14T14:35:17;27.40;59.20
4556;DHT22;2290;48.674;9.018;2023-06-14T14:37:43;27.50;58.10
4556;DHT22;2290;48.674;9.018;2023-06-14T14:40:09;27.70;57.70
4556;DHT22;2290;48.674;9.018;2023-06-14T14:42:36;27.90;57.50
4556;DHT22;2290;48.674;9.018;2023-06-14T14:45:02;27.80;57.50
4556;DHT22;2290;48.674;9.018;2023-06-14T14:47:28;27.90;58.50
4556;DHT22;2290;48.674;9.018;2023-06-14T14:49:54;28.20;58.30
4556;DHT22;2290;48.674;9.018;2023-06-14T14:52:21;28.40;57.60
4556;DHT22;2290;48.674;9.018;2023-06-14T14:54:48;28.40;57.80
4556;DHT22;2290;48.674;9.018;2023-06-14T14:57:16;28.50;57.10
4556;DHT22;2290;48.674;9.018;2023-06-14T14:59:42;28.30;57.20
4556;DHT22;2290;48.674;9.018;2023-06-14T15:02:08;28.20;56.30
4556;DHT22;2290;48.674;9.018;2023-06-14T15:04:36;28.00;56.50
4556;DHT22;2290;48.674;9.018;2023-06-14T15:07:01;27.80;57.60
4556;DHT22;2290;48.674;9.018;2023-06-14T15:09:27;28.00;58.00
4556;DHT22;2290;48.674;9.018;2023-06-14T15:11:53;28.20;57.80
4556;DHT22;2290;48.674;9.018;2023-06-14T15:14:18;28.40;57.00
4556;DHT22;2290;48.674;9.018;2023-06-14T15:16:44;28.50;55.90
4556;DHT22;2290;48.674;9.018;2023-06-14T15:19:10;28.60;57.10
4556;DHT22;2290;48.674;9.018;2023-06-14T15:21:35;28.80;57.70
4556;DHT22;2290;48.674;9.018;2023-06-14T15:24:01;28.90;57.80
4556;DHT22;2290;48.674;9.018;2023-06-14T15:26:27;29.00;57.40
4556;DHT22;2290;48.674;9.018;2023-06-14T15:28:52;29.00;57.40
4556;DHT22;2290;48.674;9.018;2023-06-14T15:31:20;29.00;57.60
4556;DHT22;2290;48.674;9.018;2023-06-14T15:33:45;29.10;57.20
4556;DHT22;2290;48.674;9.018;2023-06-14T15:36:11;29.30;56.30
4556;DHT22;2290;48.674;9.018;2023-06-14T15:38:38;29.00;57.10
4556;DHT22;2290;48.674;9.018;2023-06-14T15:41:04;29.00;57.60
4556;DHT22;2290;48.674;9.018;2023-06-14T15:43:30;28.90;58.10
4556;DHT22;2290;48.674;9.018;2023-06-14T15:45:56;29.00;57.60
4556;DHT22;2290;48.674;9.018;2023-06-14T15:48:21;29.10;57.10
4556;DHT22;2290;48.674;9.018;2023-06-14T15:50:47;29.20;57.10
4556;DHT22;2290;48.674;9.018;2023-06-14T15:53:12;29.30;57.20
4556;DHT22;2290;48.674;9.018;2023-06-14T15:55:38;29.30;56.60
4556;DHT22;2290;48.674;9.018;2023-06-14T15:58:04;29.30;57.00
4556;DHT22;2290;48.674;9.018;2023-06-14T16:00:30;29.40;57.00
4556;DHT22;2290;48.674;9.018;2023-06-14T16:02:56;29.30;57.00
4556;DHT22;2290;48.674;9.018;2023-06-14T16:05:24;29.20;57.10
4556;DHT22;2290;48.674;9.018;2023-06-14T16:07:51;29.20;57.10
4556;DHT22;2290;48.674;9.018;2023-06-14T16:10:19;29.40;57.10
4556;DHT22;2290;48.674;9.018;2023-06-14T16:12:45;29.40;56.90
4556;DHT22;2290;48.674;9.018;2023-06-14T16:15:11;29.50;56.70